Live atc sfo

Listen to live atc. Spotting News and Updates. As often as possible, we add current events to our blog, which features the latest updates from SFO, SJC, and OAK ....

San Francisco Fleet Week. Friday to Sunday, Oct. 6-8, 2023 - 11:30 a.m. - 4 p.m. San Francisco, CA. From San Francisco Fleet Week: "Get ready, the Blue Angels are returning to the Bay for the 2023 ...Here are a few tips on how you can start tracking flights using the map of San Francisco International Airport as shown above. You see a section of the airspace in the form of a map, the flight radar. Here at flightradar.live a section of Europe or an airport is shown. This of course depends on which page you have just selected.LiveATC is audio from Air Traffic Control. LiveATC is a popular resource for those who enjoy listening to and talking about Air Traffic Control (ATC)...aviation enthusiasts student pilots student air traffic controllers flight simulation enthusiasts FBO operators airline operators and just about anyone with an interest in aviation communications.

Did you know?

City: San Francisco State/Province: California Country: United States Continent: North America KSFO METAR Weather: KSFO 081656Z 31010KT 10SM FEW006 18/13 A2991 RMK AO2 SLP127 T01780128 KSFO ADS-B Flight Tracking (ADSBExchange) KSFO Flight Activity (FlightAware) KSFO Webcam: (Airport Webcams) KSFO Airport Info (iFlightPlanner)Event Details. Sat, Oct 7, 2023 at 11:30 AM. Add to calendar. More info here. San Francisco Fleet Week. Friday to Sunday, Oct. 6-8, 2023 - 11:30 a.m. - 4 p.m. San …Stream Audio of SFO near-miss (Courtesy LiveATC.net) by BANG on desktop and mobile. Play over 320 million tracks for free on SoundCloud.

One of the best complexed airports in the world San Francisco Airport. Where runways intersect eachother. The Air traffic controller needs to be on the bal...Livestreams. San Francisco International Airport (SFO) departures. The departures timetable contains information about flight status of international, domestic and charter airlines, as well delays cancellations.LiveATC.net provides live air traffic control (ATC) broadcasts from air traffic control towers and radar facilities around the world. ICAO: PHNL IATA: HNL Airport: Honolulu International Airport : City: Honolulu State/Province: Hawaii Country: United States Continent: North America; PHNL METAR Weather: PHNL 101153Z 03004KT 10SM …05/4:00 PM PDT—13/3:00 PM PST. Closed TO NON SKED TRANSIENT GA ACFT EXC PPR 702-261-7775.

130.40 MHz. On-ground SEA/PDX. 131.80 MHz. On-ground YVR. 129.40 MHz. San Francisco ARINC SatVoice. 436625. For more information contact San Francisco ARINC at +1-925-294-8297. *Flights may call on-ground VHF for HF frequency assignments at the designated gateways or on the extended range VHF when airborne.About Press Copyright Contact us Creators Advertise Developers Terms Privacy Policy & Safety How YouTube works Test new features NFL Sunday Ticket Press Copyright ... ….

Reader Q&A - also see RECOMMENDED ARTICLES & FAQs. Live atc sfo. Possible cause: Not clear live atc sfo.

San Francisco´s airport handeld almost 56 Mio passengers in 2017 and is the seventh-busiest in the United States. The commuting area of SFO/KSFO is very huge including major cities like Oakland or San Jose and even the Silicon Valley just south of the airport. Furthermore its a very popular tourist destination. Due to all these factors, the …Site: www.broadcastify.com. Time in San Francisco: 05:54, 10.06.2023. Install the free Online Radio Box application for your smartphone and listen to your favorite radio stations online - wherever you are! other options.Live ATC Chatter connects to servers that are broadcasting Air Traffic Control chatter from airports from all over the world. It then injects that audio into your cockpit where you can tune into real live ATC frequencies using your FS radio. Tired of the lifeless and dull ambience in your flight simulator with nothing but robotic voices? Now ...

PHOG airport arrivals and departures*. Additional note for Web References: Please include a backlink to the specific page you reference on FlightAware.com along with web attribution in the final article if our data/images are used. Kahului, Kahului, HI (OGG/PHOG) flight tracking (arrivals, departures, en route, and scheduled flights) and ...If you’re planning a trip and need to park your vehicle at San Francisco International Airport (SFO), finding affordable parking options can be a challenge. However, with the right strategy, you can save money on SFO parking by utilizing co...

boost mobile livernois San Francisco International Airport, Air India, airline, airplane, air traffic control | 42K views, 926 likes, 44 loves, 70 comments, 71 shares, Facebook Watch Videos from AIRLINE VIDEOS: We are...Flight Tracker & Air Traffic | San Francisco International Airport. Travel Alerts 3. yuma mortuary obituaries past 3 dayslowes appliance promo code You are listening to:KSFO Dep 120.9/127.0 - San Francisco, California, United States. KSFO 062056Z 03004KT 10SM CLR 28/17 A2991 RMK AO2 SLP129 T02780167 58022. 00:00. 0. -6.1 day ago · Boston, Massachusetts, United States. Feed Status: UP. (in browser, HTML5) (launches your MP3 player) KBOS 031354Z 26004KT 10SM FEW250 19/12 A3014 RMK AO2 SLP204 T01940117. KBOS Airport Info (Airnav.com) KBOS Flight Activity (Flightaware) Listeners: 2 out of 2559 total. Boston Approach (Final One): 126.500. osrs trouver parchment 14,497 Likes. EarthCam partnered with the South End Rowing Club to bring you panoramic views of San Francisco! Take a virtual tour of "The City by the Bay," and visit famous landmarks like the Golden Gate Bridge and Alcatraz. A Few Clouds. 63 °F. what channel will court tv be on spectrumblues clues vhs lothas anyone gotten pregnant with expired implanon But beyond the amazing view, the desks there will be chock full of computer equipment that'll pave the way for air traffic control's high tech future. "This will be the most highly technically ...You are listening to:KSFO Tower - San Francisco, California, United States. KSFO 040056Z 30012KT 10SM CLR 20/12 A2990 RMK AO2 SLP124 T02000122. wcvb tv weather radar KSFO D-ATIS - San Francisco, California, United States KSFO 111056Z 29013KT 10SM FEW010 16/13 A2986 RMK AO2 SLP111 T01610128 lewis structure of xeo2f2southchase 7 movie theaternail salons ashland wi #008 ATIS San Francisco. Download exercise. Buy transcript #009 ATIS Salt Lake City. Download exercise. Buy transcript #010 ATIS JFK. Download exercise. Buy transcript #011 ATIS Quebec O Hare Departure. Download exercise. Buy transcript #012 ATIS Charlie O Hare ... However, when ATC has to issue and amended clearance, things might get a …Most scanners pick up the entirety of the aircraft band. You can also listen to air traffic control facilities from around the world at websites including liveatc.net, globalair.com, airnav.com and radioreference.com. 2. Memorize some of the basic frequencies. 121.5 is the emergency frequency.